sensor_id;sensor_type;location;lat;lon;timestamp;temperature;humidity
75489;HTU21D;64069;46.396;48.102;2024-03-08T00:00:17;-6.38;90.53
75489;HTU21D;64069;46.396;48.102;2024-03-08T00:02:46;-6.39;90.54
75489;HTU21D;64069;46.396;48.102;2024-03-08T00:05:13;-6.41;90.79
75489;HTU21D;64069;46.396;48.102;2024-03-08T00:07:40;-6.41;90.82
75489;HTU21D;64069;46.396;48.102;2024-03-08T00:10:08;-6.39;91.11
75489;HTU21D;64069;46.396;48.102;2024-03-08T00:12:38;-6.41;91.09
75489;HTU21D;64069;46.396;48.102;2024-03-08T00:15:11;-6.41;91.05
75489;HTU21D;64069;46.396;48.102;2024-03-08T00:17:43;-6.42;90.86
75489;HTU21D;64069;46.396;48.102;2024-03-08T00:20:09;-6.43;90.82
75489;HTU21D;64069;46.396;48.102;2024-03-08T00:22:39;-6.43;90.93
75489;HTU21D;64069;46.396;48.102;2024-03-08T00:25:06;-6.42;90.83
75489;HTU21D;64069;46.396;48.102;2024-03-08T00:27:36;-6.42;90.76
75489;HTU21D;64069;46.396;48.102;2024-03-08T00:30:02;-6.42;90.92
75489;HTU21D;64069;46.396;48.102;2024-03-08T00:32:29;-6.41;90.98
75489;HTU21D;64069;46.396;48.102;2024-03-08T00:34:54;-6.41;90.86
75489;HTU21D;64069;46.396;48.102;2024-03-08T00:37:21;-6.44;90.93
75489;HTU21D;64069;46.396;48.102;2024-03-08T00:39:51;-6.46;90.89
75489;HTU21D;64069;46.396;48.102;2024-03-08T00:42:18;-6.46;91.04
75489;HTU21D;64069;46.396;48.102;2024-03-08T00:44:44;-6.45;90.89
75489;HTU21D;64069;46.396;48.102;2024-03-08T00:47:11;-6.46;90.76
75489;HTU21D;64069;46.396;48.102;2024-03-08T00:49:37;-6.46;90.82
75489;HTU21D;64069;46.396;48.102;2024-03-08T00:52:04;-6.48;90.90
75489;HTU21D;64069;46.396;48.102;2024-03-08T00:54:34;-6.47;90.99
75489;HTU21D;64069;46.396;48.102;2024-03-08T00:57:00;-6.48;90.95
75489;HTU21D;64069;46.396;48.102;2024-03-08T00:59:31;-6.47;91.13
75489;HTU21D;64069;46.396;48.102;2024-03-08T01:01:59;-6.49;91.09
75489;HTU21D;64069;46.396;48.102;2024-03-08T01:04:26;-6.47;91.14
75489;HTU21D;64069;46.396;48.102;2024-03-08T01:06:58;-6.48;91.24
75489;HTU21D;64069;46.396;48.102;2024-03-08T01:09:24;-6.45;91.31
75489;HTU21D;64069;46.396;48.102;2024-03-08T01:11:50;-6.46;91.06
75489;HTU21D;64069;46.396;48.102;2024-03-08T01:14:16;-6.46;91.11
75489;HTU21D;64069;46.396;48.102;2024-03-08T01:16:42;-6.46;91.21
75489;HTU21D;64069;46.396;48.102;2024-03-08T01:19:08;-6.45;91.11
75489;HTU21D;64069;46.396;48.102;2024-03-08T01:21:34;-6.46;91.19
75489;HTU21D;64069;46.396;48.102;2024-03-08T01:24:00;-6.43;91.13
75489;HTU21D;64069;46.396;48.102;2024-03-08T01:26:26;-6.44;91.01
75489;HTU21D;64069;46.396;48.102;2024-03-08T01:28:52;-6.44;90.99
75489;HTU21D;64069;46.396;48.102;2024-03-08T01:31:18;-6.46;91.08
75489;HTU21D;64069;46.396;48.102;2024-03-08T01:33:44;-6.48;91.23
75489;HTU21D;64069;46.396;48.102;2024-03-08T01:36:11;-6.47;91.29
75489;HTU21D;64069;46.396;48.102;2024-03-08T01:38:42;-6.47;91.40
75489;HTU21D;64069;46.396;48.102;2024-03-08T01:41:08;-6.46;91.34
75489;HTU21D;64069;46.396;48.102;2024-03-08T01:43:34;-6.45;91.27
75489;HTU21D;64069;46.396;48.102;2024-03-08T01:46:01;-6.45;91.27
75489;HTU21D;64069;46.396;48.102;2024-03-08T01:48:28;-6.46;91.19
75489;HTU21D;64069;46.396;48.102;2024-03-08T01:50:56;-6.46;91.18
75489;HTU21D;64069;46.396;48.102;2024-03-08T01:53:24;-6.46;91.29
75489;HTU21D;64069;46.396;48.102;2024-03-08T01:55:54;-6.48;91.20
75489;HTU21D;64069;46.396;48.102;2024-03-08T01:58:22;-6.49;91.18
75489;HTU21D;64069;46.396;48.102;2024-03-08T02:00:49;-6.48;91.18
75489;HTU21D;64069;46.396;48.102;2024-03-08T02:03:16;-6.47;91.18
75489;HTU21D;64069;46.396;48.102;2024-03-08T02:05:42;-6.48;91.11
75489;HTU21D;64069;46.396;48.102;2024-03-08T02:08:09;-6.46;91.25
75489;HTU21D;64069;46.396;48.102;2024-03-08T02:10:44;-6.46;91.18
75489;HTU21D;64069;46.396;48.102;2024-03-08T02:13:11;-6.47;91.11
75489;HTU21D;64069;46.396;48.102;2024-03-08T02:18:16;-6.46;91.10
75489;HTU21D;64069;46.396;48.102;2024-03-08T02:20:43;-6.47;91.02
75489;HTU21D;64069;46.396;48.102;2024-03-08T02:23:09;-6.44;91.31
75489;HTU21D;64069;46.396;48.102;2024-03-08T02:25:35;-6.42;91.16
75489;HTU21D;64069;46.396;48.102;2024-03-08T02:28:01;-6.42;91.07
75489;HTU21D;64069;46.396;48.102;2024-03-08T02:30:27;-6.38;91.17
75489;HTU21D;64069;46.396;48.102;2024-03-08T02:32:55;-6.38;91.05
75489;HTU21D;64069;46.396;48.102;2024-03-08T02:35:22;-6.41;91.11
75489;HTU21D;64069;46.396;48.102;2024-03-08T02:37:48;-6.35;91.36
75489;HTU21D;64069;46.396;48.102;2024-03-08T02:40:14;-6.35;91.26
75489;HTU21D;64069;46.396;48.102;2024-03-08T02:42:40;-6.34;91.27
75489;HTU21D;64069;46.396;48.102;2024-03-08T02:45:06;-6.35;91.38
75489;HTU21D;64069;46.396;48.102;2024-03-08T02:47:33;-6.33;91.56
75489;HTU21D;64069;46.396;48.102;2024-03-08T02:49:59;-6.33;91.43
75489;HTU21D;64069;46.396;48.102;2024-03-08T02:52:27;-6.32;91.65
75489;HTU21D;64069;46.396;48.102;2024-03-08T02:54:53;-6.29;91.50
75489;HTU21D;64069;46.396;48.102;2024-03-08T02:57:19;-6.29;91.60
75489;HTU21D;64069;46.396;48.102;2024-03-08T02:59:45;-6.24;91.82
75489;HTU21D;64069;46.396;48.102;2024-03-08T03:02:11;-6.23;91.79
75489;HTU21D;64069;46.396;48.102;2024-03-08T03:04:40;-6.26;91.62
75489;HTU21D;64069;46.396;48.102;2024-03-08T03:07:06;-6.23;91.82
75489;HTU21D;64069;46.396;48.102;2024-03-08T03:09:32;-6.24;91.84
75489;HTU21D;64069;46.396;48.102;2024-03-08T03:11:59;-6.24;91.87
75489;HTU21D;64069;46.396;48.102;2024-03-08T03:14:25;-6.27;91.82
75489;HTU21D;64069;46.396;48.102;2024-03-08T03:16:53;-6.29;91.66
75489;HTU21D;64069;46.396;48.102;2024-03-08T03:19:20;-6.30;91.82
75489;HTU21D;64069;46.396;48.102;2024-03-08T03:21:46;-6.28;91.74
75489;HTU21D;64069;46.396;48.102;2024-03-08T03:24:12;-6.28;91.61
75489;HTU21D;64069;46.396;48.102;2024-03-08T03:26:42;-6.24;91.60
75489;HTU21D;64069;46.396;48.102;2024-03-08T03:29:09;-6.22;91.51
75489;HTU21D;64069;46.396;48.102;2024-03-08T03:31:36;-6.17;91.50
75489;HTU21D;64069;46.396;48.102;2024-03-08T03:34:03;-6.06;91.55
75489;HTU21D;64069;46.396;48.102;2024-03-08T03:36:30;-6.00;91.40
75489;HTU21D;64069;46.396;48.102;2024-03-08T03:38:56;-5.92;91.32
75489;HTU21D;64069;46.396;48.102;2024-03-08T03:41:32;-5.86;91.38
75489;HTU21D;64069;46.396;48.102;2024-03-08T03:44:00;-5.78;91.24
75489;HTU21D;64069;46.396;48.102;2024-03-08T03:46:26;-5.70;91.12
75489;HTU21D;64069;46.396;48.102;2024-03-08T03:48:54;-5.60;91.07
75489;HTU21D;64069;46.396;48.102;2024-03-08T03:51:21;-5.49;90.92
75489;HTU21D;64069;46.396;48.102;2024-03-08T03:53:47;-5.40;90.79
75489;HTU21D;64069;46.396;48.102;2024-03-08T03:56:13;-5.27;90.60
75489;HTU21D;64069;46.396;48.102;2024-03-08T03:58:39;-5.18;90.44
75489;HTU21D;64069;46.396;48.102;2024-03-08T04:01:05;-5.12;90.31
75489;HTU21D;64069;46.396;48.102;2024-03-08T04:03:31;-5.07;90.18
75489;HTU21D;64069;46.396;48.102;2024-03-08T04:05:57;-5.02;90.06
75489;HTU21D;64069;46.396;48.102;2024-03-08T04:08:23;-5.02;89.99
75489;HTU21D;64069;46.396;48.102;2024-03-08T04:10:52;-5.01;90.00
75489;HTU21D;64069;46.396;48.102;2024-03-08T04:13:18;-4.93;90.03
75489;HTU21D;64069;46.396;48.102;2024-03-08T04:15:46;-4.72;89.94
75489;HTU21D;64069;46.396;48.102;2024-03-08T04:18:14;-4.51;89.63
75489;HTU21D;64069;46.396;48.102;2024-03-08T04:20:40;-4.35;89.30
75489;HTU21D;64069;46.396;48.102;2024-03-08T04:23:06;-4.26;89.08
75489;HTU21D;64069;46.396;48.102;2024-03-08T04:25:32;-4.08;89.00
75489;HTU21D;64069;46.396;48.102;2024-03-08T04:27:58;-3.96;88.64
75489;HTU21D;64069;46.396;48.102;2024-03-08T04:30:25;-3.83;88.54
75489;HTU21D;64069;46.396;48.102;2024-03-08T04:32:50;-3.67;88.37
75489;HTU21D;64069;46.396;48.102;2024-03-08T04:35:17;-3.47;88.24
75489;HTU21D;64069;46.396;48.102;2024-03-08T04:37:42;-3.26;88.04
75489;HTU21D;64069;46.396;48.102;2024-03-08T04:40:09;-3.10;87.77
75489;HTU21D;64069;46.396;48.102;2024-03-08T04:42:36;-3.10;87.41
75489;HTU21D;64069;46.396;48.102;2024-03-08T04:45:03;-3.15;87.32
75489;HTU21D;64069;46.396;48.102;2024-03-08T04:47:29;-3.08;87.32
75489;HTU21D;64069;46.396;48.102;2024-03-08T04:49:56;-2.86;87.40
75489;HTU21D;64069;46.396;48.102;2024-03-08T04:52:23;-2.63;87.08
75489;HTU21D;64069;46.396;48.102;2024-03-08T04:54:49;-2.47;86.77
75489;HTU21D;64069;46.396;48.102;2024-03-08T04:57:15;-2.38;86.44
75489;HTU21D;64069;46.396;48.102;2024-03-08T04:59:44;-2.31;86.37
75489;HTU21D;64069;46.396;48.102;2024-03-08T05:02:09;-2.21;86.36
75489;HTU21D;64069;46.396;48.102;2024-03-08T05:04:37;-2.16;86.09
75489;HTU21D;64069;46.396;48.102;2024-03-08T05:07:03;-2.08;85.93
75489;HTU21D;64069;46.396;48.102;2024-03-08T05:09:29;-2.08;85.71
75489;HTU21D;64069;46.396;48.102;2024-03-08T05:11:57;-2.12;85.55
75489;HTU21D;64069;46.396;48.102;2024-03-08T05:14:25;-2.17;85.51
75489;HTU21D;64069;46.396;48.102;2024-03-08T05:16:51;-2.20;85.51
75489;HTU21D;64069;46.396;48.102;2024-03-08T05:19:18;-2.22;85.30
75489;HTU21D;64069;46.396;48.102;2024-03-08T05:21:45;-2.16;85.26
75489;HTU21D;64069;46.396;48.102;2024-03-08T05:24:11;-2.13;85.06
75489;HTU21D;64069;46.396;48.102;2024-03-08T05:26:39;-2.00;85.12
75489;HTU21D;64069;46.396;48.102;2024-03-08T05:29:05;-1.92;84.82
75489;HTU21D;64069;46.396;48.102;2024-03-08T05:31:43;-1.93;84.48
75489;HTU21D;64069;46.396;48.102;2024-03-08T05:34:11;-1.94;84.60
75489;HTU21D;64069;46.396;48.102;2024-03-08T05:36:40;-1.95;84.35
75489;HTU21D;64069;46.396;48.102;2024-03-08T05:39:09;-1.99;84.29
75489;HTU21D;64069;46.396;48.102;2024-03-08T05:41:38;-2.00;84.23
75489;HTU21D;64069;46.396;48.102;2024-03-08T05:44:05;-1.88;84.34
75489;HTU21D;64069;46.396;48.102;2024-03-08T05:46:31;-1.75;84.23
75489;HTU21D;64069;46.396;48.102;2024-03-08T05:48:57;-1.59;84.10
75489;HTU21D;64069;46.396;48.102;2024-03-08T05:51:27;-1.49;83.83
75489;HTU21D;64069;46.396;48.102;2024-03-08T05:53:53;-1.59;83.55
75489;HTU21D;64069;46.396;48.102;2024-03-08T05:56:21;-1.54;83.76
75489;HTU21D;64069;46.396;48.102;2024-03-08T05:58:48;-1.54;83.71
75489;HTU21D;64069;46.396;48.102;2024-03-08T06:01:16;-1.44;83.81
75489;HTU21D;64069;46.396;48.102;2024-03-08T06:03:42;-1.38;83.45
75489;HTU21D;64069;46.396;48.102;2024-03-08T06:06:14;-1.21;83.58
75489;HTU21D;64069;46.396;48.102;2024-03-08T06:08:43;-1.10;83.24
75489;HTU21D;64069;46.396;48.102;2024-03-08T06:11:09;-1.01;83.25
75489;HTU21D;64069;46.396;48.102;2024-03-08T06:13:35;-0.79;83.08
75489;HTU21D;64069;46.396;48.102;2024-03-08T06:16:02;-0.71;82.69
75489;HTU21D;64069;46.396;48.102;2024-03-08T06:18:31;-0.59;82.70
75489;HTU21D;64069;46.396;48.102;2024-03-08T06:20:57;-0.40;82.69
75489;HTU21D;64069;46.396;48.102;2024-03-08T06:23:23;-0.34;82.25
75489;HTU21D;64069;46.396;48.102;2024-03-08T06:25:49;-0.34;82.13
75489;HTU21D;64069;46.396;48.102;2024-03-08T06:28:15;-0.26;82.16
75489;HTU21D;64069;46.396;48.102;2024-03-08T06:30:42;-0.11;81.85
75489;HTU21D;64069;46.396;48.102;2024-03-08T06:33:08;0.09;81.72
75489;HTU21D;64069;46.396;48.102;2024-03-08T06:35:35;0.27;81.52
75489;HTU21D;64069;46.396;48.102;2024-03-08T06:38:06;0.35;81.11
75489;HTU21D;64069;46.396;48.102;2024-03-08T06:40:32;0.46;81.03
75489;HTU21D;64069;46.396;48.102;2024-03-08T06:42:58;0.47;81.01
75489;HTU21D;64069;46.396;48.102;2024-03-08T06:45:24;0.47;80.64
75489;HTU21D;64069;46.396;48.102;2024-03-08T06:47:51;0.61;80.84
75489;HTU21D;64069;46.396;48.102;2024-03-08T06:50:17;0.75;80.70
75489;HTU21D;64069;46.396;48.102;2024-03-08T06:52:43;0.80;80.08
75489;HTU21D;64069;46.396;48.102;2024-03-08T06:55:10;1.01;80.35
75489;HTU21D;64069;46.396;48.102;2024-03-08T06:57:39;1.05;79.65
75489;HTU21D;64069;46.396;48.102;2024-03-08T07:00:09;0.86;79.44
75489;HTU21D;64069;46.396;48.102;2024-03-08T07:02:37;0.66;79.54
75489;HTU21D;64069;46.396;48.102;2024-03-08T07:05:05;0.58;79.43
75489;HTU21D;64069;46.396;48.102;2024-03-08T07:07:31;0.59;78.80
75489;HTU21D;64069;46.396;48.102;2024-03-08T07:09:59;0.83;79.11
75489;HTU21D;64069;46.396;48.102;2024-03-08T07:12:25;0.88;78.05
75489;HTU21D;64069;46.396;48.102;2024-03-08T07:14:51;0.95;77.98
75489;HTU21D;64069;46.396;48.102;2024-03-08T07:17:17;0.92;77.65
75489;HTU21D;64069;46.396;48.102;2024-03-08T07:19:43;0.96;77.56
75489;HTU21D;64069;46.396;48.102;2024-03-08T07:22:09;0.94;77.34
75489;HTU21D;64069;46.396;48.102;2024-03-08T07:24:36;1.07;77.25
75489;HTU21D;64069;46.396;48.102;2024-03-08T07:27:37;1.09;77.05
75489;HTU21D;64069;46.396;48.102;2024-03-08T07:30:03;1.10;76.81
75489;HTU21D;64069;46.396;48.102;2024-03-08T07:32:30;1.31;76.86
75489;HTU21D;64069;46.396;48.102;2024-03-08T07:34:57;1.35;76.18
75489;HTU21D;64069;46.396;48.102;2024-03-08T07:37:24;1.48;75.99
75489;HTU21D;64069;46.396;48.102;2024-03-08T07:39:50;1.47;75.21
75489;HTU21D;64069;46.396;48.102;2024-03-08T07:42:16;1.70;75.34
75489;HTU21D;64069;46.396;48.102;2024-03-08T07:44:42;1.88;74.82
75489;HTU21D;64069;46.396;48.102;2024-03-08T07:47:08;1.87;74.40
75489;HTU21D;64069;46.396;48.102;2024-03-08T07:49:35;2.01;74.47
75489;HTU21D;64069;46.396;48.102;2024-03-08T07:52:04;2.32;74.22
75489;HTU21D;64069;46.396;48.102;2024-03-08T07:54:30;2.59;73.89
75489;HTU21D;64069;46.396;48.102;2024-03-08T07:56:56;2.78;72.97
75489;HTU21D;64069;46.396;48.102;2024-03-08T07:59:22;2.70;72.57
75489;HTU21D;64069;46.396;48.102;2024-03-08T08:01:48;2.80;72.12
75489;HTU21D;64069;46.396;48.102;2024-03-08T08:04:14;2.84;71.96
75489;HTU21D;64069;46.396;48.102;2024-03-08T08:06:43;3.02;71.80
75489;HTU21D;64069;46.396;48.102;2024-03-08T08:09:09;3.13;71.11
75489;HTU21D;64069;46.396;48.102;2024-03-08T08:11:40;3.20;71.14
75489;HTU21D;64069;46.396;48.102;2024-03-08T08:14:09;3.39;71.06
75489;HTU21D;64069;46.396;48.102;2024-03-08T08:16:36;3.39;70.77
75489;HTU21D;64069;46.396;48.102;2024-03-08T08:19:03;3.38;70.57
75489;HTU21D;64069;46.396;48.102;2024-03-08T08:21:34;3.27;70.23
75489;HTU21D;64069;46.396;48.102;2024-03-08T08:24:03;3.21;70.31
75489;HTU21D;64069;46.396;48.102;2024-03-08T08:26:30;3.31;70.03
75489;HTU21D;64069;46.396;48.102;2024-03-08T08:28:56;3.44;69.72
75489;HTU21D;64069;46.396;48.102;2024-03-08T08:31:22;3.60;69.56
75489;HTU21D;64069;46.396;48.102;2024-03-08T08:33:48;3.45;68.38
75489;HTU21D;64069;46.396;48.102;2024-03-08T08:36:15;3.29;68.41
75489;HTU21D;64069;46.396;48.102;2024-03-08T08:38:41;3.35;68.20
75489;HTU21D;64069;46.396;48.102;2024-03-08T08:41:12;3.12;67.64
75489;HTU21D;64069;46.396;48.102;2024-03-08T08:43:39;3.05;68.01
75489;HTU21D;64069;46.396;48.102;2024-03-08T08:46:05;3.03;68.06
75489;HTU21D;64069;46.396;48.102;2024-03-08T08:48:31;3.01;68.04
75489;HTU21D;64069;46.396;48.102;2024-03-08T08:50:57;3.21;67.94
75489;HTU21D;64069;46.396;48.102;2024-03-08T08:53:23;3.24;67.46
75489;HTU21D;64069;46.396;48.102;2024-03-08T08:55:49;3.35;67.36
75489;HTU21D;64069;46.396;48.102;2024-03-08T08:58:15;3.29;66.72
75489;HTU21D;64069;46.396;48.102;2024-03-08T09:00:41;3.16;66.63
75489;HTU21D;64069;46.396;48.102;2024-03-08T09:03:10;2.99;66.81
75489;HTU21D;64069;46.396;48.102;2024-03-08T09:05:37;3.06;66.43
75489;HTU21D;64069;46.396;48.102;2024-03-08T09:08:04;3.05;65.91
75489;HTU21D;64069;46.396;48.102;2024-03-08T09:10:30;2.98;65.49
75489;HTU21D;64069;46.396;48.102;2024-03-08T09:12:56;2.98;65.46
75489;HTU21D;64069;46.396;48.102;2024-03-08T09:15:22;3.02;65.04
75489;HTU21D;64069;46.396;48.102;2024-03-08T09:17:48;2.91;63.66
75489;HTU21D;64069;46.396;48.102;2024-03-08T09:20:14;2.88;63.40
75489;HTU21D;64069;46.396;48.102;2024-03-08T09:22:44;2.94;62.82
75489;HTU21D;64069;46.396;48.102;2024-03-08T09:25:10;3.08;62.96
75489;HTU21D;64069;46.396;48.102;2024-03-08T09:27:36;3.14;62.63
75489;HTU21D;64069;46.396;48.102;2024-03-08T09:30:03;3.26;62.41
75489;HTU21D;64069;46.396;48.102;2024-03-08T09:32:30;3.40;62.25
75489;HTU21D;64069;46.396;48.102;2024-03-08T09:34:57;3.46;61.87
75489;HTU21D;64069;46.396;48.102;2024-03-08T09:37:23;3.43;61.63
75489;HTU21D;64069;46.396;48.102;2024-03-08T09:39:49;3.45;61.64
75489;HTU21D;64069;46.396;48.102;2024-03-08T09:42:15;3.57;61.34
75489;HTU21D;64069;46.396;48.102;2024-03-08T09:44:47;3.63;60.63
75489;HTU21D;64069;46.396;48.102;2024-03-08T09:47:14;3.59;60.44
75489;HTU21D;64069;46.396;48.102;2024-03-08T09:49:41;3.70;60.57
75489;HTU21D;64069;46.396;48.102;2024-03-08T09:52:10;3.73;59.27
75489;HTU21D;64069;46.396;48.102;2024-03-08T09:54:38;3.72;59.53
75489;HTU21D;64069;46.396;48.102;2024-03-08T09:57:06;3.77;58.65
75489;HTU21D;64069;46.396;48.102;2024-03-08T09:59:34;3.82;58.73
75489;HTU21D;64069;46.396;48.102;2024-03-08T10:02:03;3.93;58.46
75489;HTU21D;64069;46.396;48.102;2024-03-08T10:04:29;3.91;58.09
75489;HTU21D;64069;46.396;48.102;2024-03-08T10:07:01;4.00;57.52
75489;HTU21D;64069;46.396;48.102;2024-03-08T10:09:27;3.90;56.49
75489;HTU21D;64069;46.396;48.102;2024-03-08T10:11:56;3.89;56.77
75489;HTU21D;64069;46.396;48.102;2024-03-08T10:14:24;3.99;56.68
75489;HTU21D;64069;46.396;48.102;2024-03-08T10:16:52;4.13;56.42
75489;HTU21D;64069;46.396;48.102;2024-03-08T10:19:19;4.12;56.23
75489;HTU21D;64069;46.396;48.102;2024-03-08T10:21:52;4.09;56.25
75489;HTU21D;64069;46.396;48.102;2024-03-08T10:24:19;4.24;56.64
75489;HTU21D;64069;46.396;48.102;2024-03-08T10:26:45;4.50;56.64
75489;HTU21D;64069;46.396;48.102;2024-03-08T10:29:13;4.76;56.32
75489;HTU21D;64069;46.396;48.102;2024-03-08T10:31:44;4.61;54.91
75489;HTU21D;64069;46.396;48.102;2024-03-08T10:34:12;4.42;55.30
75489;HTU21D;64069;46.396;48.102;2024-03-08T10:36:40;4.27;55.77
75489;HTU21D;64069;46.396;48.102;2024-03-08T10:39:23;4.29;55.16
75489;HTU21D;64069;46.396;48.102;2024-03-08T10:42:02;4.24;55.28
75489;HTU21D;64069;46.396;48.102;2024-03-08T10:44:40;4.33;55.30
75489;HTU21D;64069;46.396;48.102;2024-03-08T10:47:22;4.44;55.22
75489;HTU21D;64069;46.396;48.102;2024-03-08T10:52:34;4.30;54.92
75489;HTU21D;64069;46.396;48.102;2024-03-08T10:55:02;4.22;54.83
75489;HTU21D;64069;46.396;48.102;2024-03-08T10:57:29;4.27;54.33
75489;HTU21D;64069;46.396;48.102;2024-03-08T10:59:57;4.26;54.15
75489;HTU21D;64069;46.396;48.102;2024-03-08T11:02:26;4.24;54.41
75489;HTU21D;64069;46.396;48.102;2024-03-08T11:04:52;4.28;54.19
75489;HTU21D;64069;46.396;48.102;2024-03-08T11:07:25;4.23;53.54
75489;HTU21D;64069;46.396;48.102;2024-03-08T11:09:53;4.24;54.03
75489;HTU21D;64069;46.396;48.102;2024-03-08T11:12:28;4.23;53.92
75489;HTU21D;64069;46.396;48.102;2024-03-08T11:14:56;4.28;53.70
75489;HTU21D;64069;46.396;48.102;2024-03-08T11:20:16;4.37;52.59
75489;HTU21D;64069;46.396;48.102;2024-03-08T11:22:54;4.46;52.91
75489;HTU21D;64069;46.396;48.102;2024-03-08T11:28:21;4.67;52.38
75489;HTU21D;64069;46.396;48.102;2024-03-08T11:33:27;4.57;52.32
75489;HTU21D;64069;46.396;48.102;2024-03-08T11:38:43;4.37;51.71
75489;HTU21D;64069;46.396;48.102;2024-03-08T11:41:10;4.32;52.25
75489;HTU21D;64069;46.396;48.102;2024-03-08T11:43:40;4.36;52.43
75489;HTU21D;64069;46.396;48.102;2024-03-08T11:46:11;4.53;52.17
75489;HTU21D;64069;46.396;48.102;2024-03-08T11:48:43;4.61;51.91
75489;HTU21D;64069;46.396;48.102;2024-03-08T11:51:14;4.63;50.84
75489;HTU21D;64069;46.396;48.102;2024-03-08T11:53:41;4.60;51.22
75489;HTU21D;64069;46.396;48.102;2024-03-08T11:56:15;4.61;51.33
75489;HTU21D;64069;46.396;48.102;2024-03-08T11:58:42;4.60;50.98
75489;HTU21D;64069;46.396;48.102;2024-03-08T12:01:18;4.58;51.14
75489;HTU21D;64069;46.396;48.102;2024-03-08T12:03:43;4.58;50.94
75489;HTU21D;64069;46.396;48.102;2024-03-08T12:06:12;4.48;50.85
75489;HTU21D;64069;46.396;48.102;2024-03-08T12:08:41;4.58;51.26
75489;HTU21D;64069;46.396;48.102;2024-03-08T12:11:07;4.71;51.22
75489;HTU21D;64069;46.396;48.102;2024-03-08T12:13:35;4.83;50.97
75489;HTU21D;64069;46.396;48.102;2024-03-08T12:16:05;4.82;50.39
75489;HTU21D;64069;46.396;48.102;2024-03-08T12:18:36;4.81;50.40
75489;HTU21D;64069;46.396;48.102;2024-03-08T12:21:08;4.81;50.59
75489;HTU21D;64069;46.396;48.102;2024-03-08T12:23:38;4.80;50.32
75489;HTU21D;64069;46.396;48.102;2024-03-08T12:26:17;4.67;50.20
75489;HTU21D;64069;46.396;48.102;2024-03-08T12:28:45;4.61;50.57
75489;HTU21D;64069;46.396;48.102;2024-03-08T12:31:15;4.56;50.64
75489;HTU21D;64069;46.396;48.102;2024-03-08T12:33:53;4.58;50.87
75489;HTU21D;64069;46.396;48.102;2024-03-08T12:36:20;4.54;50.34
75489;HTU21D;64069;46.396;48.102;2024-03-08T12:38:47;4.50;50.43
75489;HTU21D;64069;46.396;48.102;2024-03-08T12:41:16;4.43;50.08
75489;HTU21D;64069;46.396;48.102;2024-03-08T12:43:44;4.33;50.25
75489;HTU21D;64069;46.396;48.102;2024-03-08T12:46:18;4.20;50.19
75489;HTU21D;64069;46.396;48.102;2024-03-08T12:48:48;4.06;49.97
75489;HTU21D;64069;46.396;48.102;2024-03-08T12:51:14;3.97;50.03
75489;HTU21D;64069;46.396;48.102;2024-03-08T12:53:44;3.92;49.85
75489;HTU21D;64069;46.396;48.102;2024-03-08T12:56:12;3.89;49.52
75489;HTU21D;64069;46.396;48.102;2024-03-08T12:58:38;3.79;49.67
75489;HTU21D;64069;46.396;48.102;2024-03-08T13:01:05;3.74;49.90
75489;HTU21D;64069;46.396;48.102;2024-03-08T13:03:34;3.74;50.18
75489;HTU21D;64069;46.396;48.102;2024-03-08T13:06:07;3.75;50.31
75489;HTU21D;64069;46.396;48.102;2024-03-08T13:08:37;3.84;50.02
75489;HTU21D;64069;46.396;48.102;2024-03-08T13:11:07;3.82;49.81
75489;HTU21D;64069;46.396;48.102;2024-03-08T13:13:35;3.77;49.98
75489;HTU21D;64069;46.396;48.102;2024-03-08T13:16:03;3.72;50.21
75489;HTU21D;64069;46.396;48.102;2024-03-08T13:18:29;3.69;50.43
75489;HTU21D;64069;46.396;48.102;2024-03-08T13:20:55;3.65;50.18
75489;HTU21D;64069;46.396;48.102;2024-03-08T13:23:23;3.65;50.36
75489;HTU21D;64069;46.396;48.102;2024-03-08T13:25:49;3.61;50.10
75489;HTU21D;64069;46.396;48.102;2024-03-08T13:28:15;3.53;50.16
75489;HTU21D;64069;46.396;48.102;2024-03-08T13:30:42;3.44;50.06
75489;HTU21D;64069;46.396;48.102;2024-03-08T13:33:09;3.31;50.54
75489;HTU21D;64069;46.396;48.102;2024-03-08T13:35:36;3.27;50.85
75489;HTU21D;64069;46.396;48.102;2024-03-08T13:38:03;3.24;50.82
75489;HTU21D;64069;46.396;48.102;2024-03-08T13:40:30;3.20;50.60
75489;HTU21D;64069;46.396;48.102;2024-03-08T13:42:56;3.13;50.85
75489;HTU21D;64069;46.396;48.102;2024-03-08T13:45:22;3.09;50.53
75489;HTU21D;64069;46.396;48.102;2024-03-08T13:47:53;3.04;50.52
75489;HTU21D;64069;46.396;48.102;2024-03-08T13:50:20;3.00;50.79
75489;HTU21D;64069;46.396;48.102;2024-03-08T13:52:49;2.93;50.70
75489;HTU21D;64069;46.396;48.102;2024-03-08T13:55:20;2.86;50.86
75489;HTU21D;64069;46.396;48.102;2024-03-08T13:57:48;2.79;50.87
75489;HTU21D;64069;46.396;48.102;2024-03-08T14:00:17;2.74;50.97
75489;HTU21D;64069;46.396;48.102;2024-03-08T14:02:43;2.66;50.99
75489;HTU21D;64069;46.396;48.102;2024-03-08T14:05:10;2.57;51.17
75489;HTU21D;64069;46.396;48.102;2024-03-08T14:07:37;2.50;51.39
75489;HTU21D;64069;46.396;48.102;2024-03-08T14:10:04;2.42;51.59
75489;HTU21D;64069;46.396;48.102;2024-03-08T14:12:32;2.34;51.82
75489;HTU21D;64069;46.396;48.102;2024-03-08T14:14:58;2.27;51.84
75489;HTU21D;64069;46.396;48.102;2024-03-08T14:17:25;2.22;51.61
75489;HTU21D;64069;46.396;48.102;2024-03-08T14:19:53;2.15;51.74
75489;HTU21D;64069;46.396;48.102;2024-03-08T14:22:21;2.08;51.81
75489;HTU21D;64069;46.396;48.102;2024-03-08T14:24:48;2.03;51.96
75489;HTU21D;64069;46.396;48.102;2024-03-08T14:27:15;1.94;52.01
75489;HTU21D;64069;46.396;48.102;2024-03-08T14:29:44;1.86;52.27
75489;HTU21D;64069;46.396;48.102;2024-03-08T14:32:11;1.76;52.44
75489;HTU21D;64069;46.396;48.102;2024-03-08T14:34:38;1.65;52.46
75489;HTU21D;64069;46.396;48.102;2024-03-08T14:37:04;1.56;52.70
75489;HTU21D;64069;46.396;48.102;2024-03-08T14:39:37;1.45;52.88
75489;HTU21D;64069;46.396;48.102;2024-03-08T14:42:04;1.34;53.05
75489;HTU21D;64069;46.396;48.102;2024-03-08T14:44:32;1.24;53.21
75489;HTU21D;64069;46.396;48.102;2024-03-08T14:46:58;1.19;53.24
75489;HTU21D;64069;46.396;48.102;2024-03-08T14:49:25;1.13;53.33
75489;HTU21D;64069;46.396;48.102;2024-03-08T14:51:55;1.02;53.49
75489;HTU21D;64069;46.396;48.102;2024-03-08T14:54:23;0.93;53.68
75489;HTU21D;64069;46.396;48.102;2024-03-08T14:56:50;0.84;53.79
75489;HTU21D;64069;46.396;48.102;2024-03-08T14:59:20;0.80;53.82
75489;HTU21D;64069;46.396;48.102;2024-03-08T15:01:46;0.78;53.89
75489;HTU21D;64069;46.396;48.102;2024-03-08T15:04:13;0.77;53.91
75489;HTU21D;64069;46.396;48.102;2024-03-08T15:06:39;0.75;53.93
75489;HTU21D;64069;46.396;48.102;2024-03-08T15:09:06;0.68;54.01
75489;HTU21D;64069;46.396;48.102;2024-03-08T15:11:46;0.57;54.22
75489;HTU21D;64069;46.396;48.102;2024-03-08T15:14:14;0.46;54.46
75489;HTU21D;64069;46.396;48.102;2024-03-08T15:16:42;0.42;54.55
75489;HTU21D;64069;46.396;48.102;2024-03-08T15:19:09;0.40;54.63
75489;HTU21D;64069;46.396;48.102;2024-03-08T15:21:37;0.42;54.59
75489;HTU21D;64069;46.396;48.102;2024-03-08T15:24:04;0.34;54.67
75489;HTU21D;64069;46.396;48.102;2024-03-08T15:26:30;0.28;54.85
75489;HTU21D;64069;46.396;48.102;2024-03-08T15:28:57;0.20;54.96